createdAt,value
2018-09-24T00:01:34.175Z,8.60
2018-09-24T00:04:01.144Z,8.53
2018-09-24T00:06:28.295Z,8.66
2018-09-24T00:08:55.476Z,8.67
2018-09-24T00:11:22.478Z,8.70
2018-09-24T00:13:49.434Z,8.64
2018-09-24T00:16:17.293Z,8.60
2018-09-24T00:18:44.729Z,8.60
2018-09-24T00:21:11.712Z,8.61
2018-09-24T00:23:38.814Z,8.66
2018-09-24T00:26:05.971Z,8.65
2018-09-24T00:28:33.304Z,8.65
2018-09-24T00:31:00.391Z,8.68
2018-09-24T00:33:27.368Z,8.70
2018-09-24T00:35:54.363Z,8.69
2018-09-24T00:38:21.339Z,8.66
2018-09-24T00:40:48.896Z,8.62
2018-09-24T00:43:15.945Z,8.61
2018-09-24T00:45:42.888Z,8.56
2018-09-24T00:48:10.194Z,8.52
2018-09-24T00:50:37.244Z,8.49
2018-09-24T00:53:04.240Z,8.54
2018-09-24T00:55:31.875Z,8.47
2018-09-24T00:57:58.928Z,8.39
2018-09-24T01:00:25.996Z,8.39
2018-09-24T01:02:53.012Z,8.34
2018-09-24T01:05:19.993Z,8.32
2018-09-24T01:07:46.967Z,8.27
2018-09-24T01:10:14.136Z,8.24
2018-09-24T01:12:41.385Z,8.28
2018-09-24T01:15:09.083Z,8.26
2018-09-24T01:17:36.140Z,8.26
2018-09-24T01:20:03.293Z,8.23
2018-09-24T01:22:30.279Z,8.22
2018-09-24T01:24:57.421Z,8.20
2018-09-24T01:27:24.411Z,8.16
2018-09-24T01:29:51.386Z,8.10
2018-09-24T01:32:19.394Z,8.10
2018-09-24T01:34:47.393Z,8.19
2018-09-24T01:37:14.461Z,8.09
2018-09-24T01:39:41.447Z,8.58
2018-09-24T01:42:08.442Z,8.89
2018-09-24T01:44:35.491Z,8.45
2018-09-24T01:47:02.555Z,8.58
2018-09-24T01:49:29.896Z,8.60
2018-09-24T01:51:56.995Z,8.42
2018-09-24T01:54:28.795Z,8.34
2018-09-24T01:56:55.807Z,8.16
2018-09-24T01:59:22.928Z,8.05
2018-09-24T02:01:49.951Z,7.95
2018-09-24T02:04:16.947Z,7.95
2018-09-24T02:06:44.091Z,7.85
2018-09-24T02:09:11.162Z,7.89
2018-09-24T02:11:38.336Z,7.80
2018-09-24T02:14:06.423Z,7.80
2018-09-24T02:16:33.481Z,7.77
2018-09-24T02:19:00.659Z,7.80
2018-09-24T02:21:27.863Z,7.74
2018-09-24T02:23:59.556Z,7.72
2018-09-24T02:26:26.583Z,7.67
2018-09-24T02:28:54.008Z,7.66
2018-09-24T02:31:20.985Z,7.66
2018-09-24T02:33:47.960Z,7.63
2018-09-24T02:36:14.947Z,7.63
2018-09-24T02:38:41.903Z,7.59
2018-09-24T02:41:09.054Z,7.51
2018-09-24T02:43:36.361Z,7.47
2018-09-24T02:46:03.531Z,7.47
2018-09-24T02:48:30.495Z,7.46
2018-09-24T02:50:57.712Z,7.47
2018-09-24T02:53:24.700Z,7.48
2018-09-24T02:55:51.691Z,7.48
2018-09-24T02:58:20.199Z,7.93
2018-09-24T03:00:47.279Z,7.72
2018-09-24T03:03:14.269Z,7.53
2018-09-24T03:05:41.832Z,7.65
2018-09-24T03:08:10.413Z,7.52
2018-09-24T03:10:39.825Z,7.39
2018-09-24T03:13:06.848Z,7.38
2018-09-24T03:15:37.601Z,7.44
2018-09-24T03:18:05.048Z,7.41
2018-09-24T03:20:35.019Z,7.37
2018-09-24T03:23:02.403Z,7.29
2018-09-24T03:25:29.383Z,7.26
2018-09-24T03:27:58.177Z,7.22
2018-09-24T03:30:30.332Z,7.20
2018-09-24T03:32:57.883Z,7.20
2018-09-24T03:35:24.859Z,7.12
2018-09-24T03:37:52.483Z,7.11
2018-09-24T03:40:19.493Z,7.10
2018-09-24T03:42:46.477Z,7.12
2018-09-24T03:45:13.461Z,7.17
2018-09-24T03:47:40.459Z,7.14
2018-09-24T03:50:07.453Z,7.19
2018-09-24T03:52:34.419Z,7.21
2018-09-24T03:55:01.493Z,7.26
2018-09-24T03:57:28.569Z,7.28
2018-09-24T03:59:55.717Z,7.27
2018-09-24T04:02:24.326Z,7.32
2018-09-24T04:04:58.433Z,7.29
2018-09-24T04:07:31.209Z,7.35
2018-09-24T04:10:07.528Z,7.47
2018-09-24T04:12:41.664Z,7.52
2018-09-24T04:15:14.328Z,7.44
2018-09-24T04:17:47.076Z,7.58
2018-09-24T04:20:19.740Z,7.78
2018-09-24T04:22:52.400Z,7.67
2018-09-24T04:25:25.028Z,7.62
2018-09-24T04:27:57.759Z,7.69
2018-09-24T04:30:30.376Z,7.74
2018-09-24T04:33:03.304Z,7.69
2018-09-24T04:35:36.212Z,7.61
2018-09-24T04:38:08.903Z,7.55
2018-09-24T04:40:41.823Z,7.52
2018-09-24T04:43:14.842Z,7.51
2018-09-24T04:45:47.748Z,7.52
2018-09-24T04:48:20.455Z,7.49
2018-09-24T04:50:53.178Z,7.74
2018-09-24T04:53:25.877Z,7.56
2018-09-24T04:55:58.635Z,7.48
2018-09-24T04:58:31.254Z,7.53
2018-09-24T05:01:04.039Z,7.45
2018-09-24T05:03:36.735Z,7.52
2018-09-24T05:06:09.488Z,7.66
2018-09-24T05:08:42.419Z,7.62
2018-09-24T05:11:15.435Z,7.53
2018-09-24T05:13:48.302Z,7.55
2018-09-24T05:16:21.574Z,7.65
2018-09-24T05:18:54.185Z,7.74
2018-09-24T05:21:27.702Z,7.85
2018-09-24T05:24:00.361Z,7.95
2018-09-24T05:26:33.405Z,7.94
2018-09-24T05:29:06.174Z,7.97
2018-09-24T05:31:38.916Z,7.93
2018-09-24T05:34:11.634Z,7.82
2018-09-24T05:36:44.252Z,7.84
2018-09-24T05:39:16.865Z,7.78
2018-09-24T05:41:49.627Z,7.82
2018-09-24T05:44:22.619Z,7.81
2018-09-24T05:46:55.348Z,7.78
2018-09-24T05:49:28.624Z,7.81
2018-09-24T05:52:01.700Z,7.66
2018-09-24T05:54:34.388Z,7.66
2018-09-24T05:57:07.857Z,7.67
2018-09-24T05:59:40.790Z,7.79
2018-09-24T06:02:13.956Z,7.82
2018-09-24T06:04:46.748Z,7.80
2018-09-24T06:07:19.708Z,7.78
2018-09-24T06:09:52.401Z,7.75
2018-09-24T06:12:25.362Z,7.73
2018-09-24T06:14:58.111Z,7.75
2018-09-24T06:17:30.857Z,7.73
2018-09-24T06:20:03.546Z,7.75
2018-09-24T06:22:36.496Z,7.77
2018-09-24T06:25:09.251Z,7.89
2018-09-24T06:27:42.159Z,7.86
2018-09-24T06:30:15.115Z,7.92
2018-09-24T06:32:47.804Z,7.95
2018-09-24T06:35:20.432Z,7.93
2018-09-24T06:37:53.355Z,8.10
2018-09-24T06:40:26.499Z,8.24
2018-09-24T06:42:59.184Z,8.49
2018-09-24T06:45:32.507Z,8.64
2018-09-24T06:48:05.424Z,8.73
2018-09-24T06:50:38.137Z,8.77
2018-09-24T06:53:10.773Z,8.44
2018-09-24T06:55:43.613Z,8.20
2018-09-24T06:58:16.466Z,8.01
2018-09-24T07:00:49.548Z,8.00
2018-09-24T07:03:22.519Z,8.07
2018-09-24T07:05:55.623Z,8.15
2018-09-24T07:08:28.582Z,8.32
2018-09-24T07:11:01.312Z,8.39
2018-09-24T07:13:33.929Z,8.33
2018-09-24T07:16:07.373Z,8.48
2018-09-24T07:18:46.885Z,8.47
2018-09-24T07:21:19.662Z,8.68
2018-09-24T07:23:52.272Z,8.76
2018-09-24T07:26:25.116Z,8.80
2018-09-24T07:28:57.827Z,8.85
2018-09-24T07:31:30.519Z,9.03
2018-09-24T07:34:03.996Z,9.05
2018-09-24T07:36:36.896Z,9.17
2018-09-24T07:39:14.739Z,9.19
2018-09-24T07:41:49.231Z,9.36
2018-09-24T07:44:21.999Z,9.47
2018-09-24T07:46:54.947Z,9.49
2018-09-24T07:49:27.859Z,9.68
2018-09-24T07:52:01.055Z,9.79
2018-09-24T07:54:34.011Z,9.99
2018-09-24T07:57:06.808Z,10.07
2018-09-24T07:59:39.425Z,10.19
2018-09-24T08:02:12.493Z,10.22
2018-09-24T08:04:45.131Z,10.31
2018-09-24T08:07:17.982Z,10.53
2018-09-24T08:09:50.612Z,10.65
2018-09-24T08:12:24.535Z,10.85
2018-09-24T08:14:57.313Z,10.93
2018-09-24T08:17:30.191Z,10.98
2018-09-24T08:20:02.903Z,11.15
2018-09-24T08:22:35.575Z,11.26
2018-09-24T08:25:08.251Z,11.06
2018-09-24T08:27:41.083Z,10.51
2018-09-24T08:30:13.688Z,10.08
2018-09-24T08:32:46.680Z,9.95
2018-09-24T08:35:19.370Z,9.95
2018-09-24T08:37:52.574Z,9.93
2018-09-24T08:40:25.504Z,10.05
2018-09-24T08:42:58.445Z,10.34
2018-09-24T08:45:31.431Z,10.46
2018-09-24T08:48:04.504Z,10.64
2018-09-24T08:50:37.367Z,10.67
2018-09-24T08:53:11.055Z,10.68
2018-09-24T08:55:43.748Z,10.83
2018-09-24T08:58:16.502Z,10.91
2018-09-24T09:00:49.848Z,10.83
2018-09-24T09:03:22.855Z,10.73
2018-09-24T09:05:55.652Z,10.83
2018-09-24T09:08:28.462Z,11.12
2018-09-24T09:11:01.687Z,11.28
2018-09-24T09:13:34.544Z,11.60
2018-09-24T09:16:07.553Z,11.61
2018-09-24T09:18:40.439Z,11.63
2018-09-24T09:21:13.535Z,11.53
2018-09-24T09:23:46.380Z,11.57
2018-09-24T09:26:19.160Z,11.66
2018-09-24T09:28:51.787Z,11.75
2018-09-24T09:31:24.440Z,11.65
2018-09-24T09:33:57.440Z,11.59
2018-09-24T09:36:31.047Z,11.59
2018-09-24T09:39:03.956Z,11.69
2018-09-24T09:41:36.807Z,11.70
2018-09-24T09:44:09.507Z,11.72
2018-09-24T09:46:42.538Z,11.59
2018-09-24T09:49:15.159Z,11.51
2018-09-24T09:51:47.860Z,11.42
2018-09-24T09:54:20.796Z,11.40
2018-09-24T09:56:53.755Z,11.42
2018-09-24T09:59:26.473Z,11.45
2018-09-24T10:01:59.567Z,11.74
2018-09-24T10:04:32.211Z,11.42
2018-09-24T10:07:05.339Z,11.30
2018-09-24T10:09:39.012Z,11.13
2018-09-24T10:12:11.760Z,11.06
2018-09-24T10:14:44.679Z,10.84
2018-09-24T10:17:17.338Z,10.73
2018-09-24T10:19:50.202Z,10.56
2018-09-24T10:22:22.867Z,10.56
2018-09-24T10:24:55.542Z,10.55
2018-09-24T10:27:28.194Z,10.61
2018-09-24T10:30:00.844Z,10.58
2018-09-24T10:32:33.795Z,10.50
2018-09-24T10:35:06.436Z,10.50
2018-09-24T10:37:40.308Z,10.34
2018-09-24T10:40:13.431Z,10.64
2018-09-24T10:42:46.126Z,10.85
2018-09-24T10:45:18.996Z,10.78
2018-09-24T10:47:51.707Z,10.60
2018-09-24T10:50:24.551Z,10.60
2018-09-24T10:52:57.274Z,10.83
2018-09-24T10:55:30.075Z,10.96
2018-09-24T10:58:02.995Z,11.09
2018-09-24T11:00:35.819Z,11.28
2018-09-24T11:03:08.401Z,11.33
2018-09-24T11:05:41.069Z,11.45
2018-09-24T11:08:13.780Z,11.61
2018-09-24T11:10:46.538Z,11.52
2018-09-24T11:13:19.587Z,11.59
2018-09-24T11:15:52.468Z,11.70
2018-09-24T11:18:25.261Z,11.88
2018-09-24T11:20:58.083Z,11.92
2018-09-24T11:23:30.676Z,11.86
2018-09-24T11:26:03.347Z,11.98
2018-09-24T11:28:36.003Z,12.25
2018-09-24T11:31:08.680Z,12.17
2018-09-24T11:33:41.448Z,12.27
2018-09-24T11:36:14.288Z,12.45
2018-09-24T11:38:47.048Z,12.94
2018-09-24T11:41:19.715Z,12.93
2018-09-24T11:43:52.673Z,12.85
2018-09-24T11:46:25.332Z,12.99
2018-09-24T11:48:58.383Z,12.96
2018-09-24T11:51:31.084Z,13.01
2018-09-24T11:54:03.999Z,13.01
2018-09-24T11:56:36.767Z,12.93
2018-09-24T11:59:09.408Z,12.92
2018-09-24T12:01:42.220Z,12.91
2018-09-24T12:04:15.120Z,12.80
2018-09-24T12:06:47.836Z,13.01
2018-09-24T12:09:20.509Z,12.47
2018-09-24T12:11:53.368Z,12.40
2018-09-24T12:14:26.088Z,12.36
2018-09-24T12:16:58.699Z,12.29
2018-09-24T12:19:31.621Z,12.23
2018-09-24T12:22:04.207Z,12.07
2018-09-24T12:24:36.876Z,12.04
2018-09-24T12:27:09.639Z,11.89
2018-09-24T12:29:42.463Z,12.09
2018-09-24T12:32:15.291Z,12.59
2018-09-24T12:34:48.308Z,12.46
2018-09-24T12:37:20.999Z,12.64
2018-09-24T12:39:53.681Z,11.99
2018-09-24T12:42:26.334Z,11.73
2018-09-24T12:44:59.051Z,11.49
2018-09-24T12:47:31.987Z,11.24
2018-09-24T12:50:07.655Z,11.25
2018-09-24T12:52:40.397Z,11.22
2018-09-24T12:55:13.172Z,11.24
2018-09-24T12:57:45.883Z,11.53
2018-09-24T13:00:18.862Z,12.14
2018-09-24T13:02:51.480Z,12.63
2018-09-24T13:05:24.324Z,12.75
2018-09-24T13:07:57.239Z,12.80
2018-09-24T13:10:29.826Z,12.84
2018-09-24T13:13:02.752Z,12.48
2018-09-24T13:15:35.571Z,12.44
2018-09-24T13:18:08.503Z,12.31
2018-09-24T13:20:41.446Z,13.07
2018-09-24T13:23:14.143Z,13.46
2018-09-24T13:25:47.327Z,13.68
2018-09-24T13:28:19.947Z,13.22
2018-09-24T13:30:52.991Z,13.40
2018-09-24T13:33:25.568Z,12.70
2018-09-24T13:35:58.355Z,13.12
2018-09-24T13:38:31.011Z,12.84
2018-09-24T13:41:03.847Z,12.68
2018-09-24T13:43:36.496Z,12.88
2018-09-24T13:46:09.367Z,13.40
2018-09-24T13:48:41.980Z,13.42
2018-09-24T13:51:14.573Z,13.43
2018-09-24T13:53:47.233Z,13.49
2018-09-24T13:56:20.089Z,14.00
2018-09-24T13:58:52.666Z,14.02
2018-09-24T14:01:25.295Z,13.70
2018-09-24T14:03:58.136Z,13.70
2018-09-24T14:06:30.831Z,13.54
2018-09-24T14:09:03.499Z,13.30
2018-09-24T14:11:36.456Z,13.40
2018-09-24T14:14:09.108Z,12.99
2018-09-24T14:16:42.141Z,12.94
2018-09-24T14:19:15.068Z,13.07
2018-09-24T14:21:50.108Z,12.55
2018-09-24T14:24:25.200Z,12.31
2018-09-24T14:27:01.513Z,12.44
2018-09-24T14:29:34.403Z,12.38
2018-09-24T14:32:07.307Z,12.40
2018-09-24T14:34:40.196Z,12.14
2018-09-24T14:37:12.900Z,11.90
2018-09-24T14:39:46.846Z,12.03
2018-09-24T14:42:20.148Z,11.90
2018-09-24T14:44:54.175Z,11.95
2018-09-24T14:47:28.893Z,11.88
2018-09-24T14:50:05.709Z,11.75
2018-09-24T14:52:39.827Z,11.66
2018-09-24T14:55:14.883Z,11.52
2018-09-24T14:57:50.101Z,11.22
2018-09-24T15:00:23.559Z,10.83
2018-09-24T15:02:56.768Z,10.61
2018-09-24T15:05:29.420Z,10.53
2018-09-24T15:08:02.033Z,10.50
2018-09-24T15:10:36.020Z,10.59
2018-09-24T15:13:09.733Z,10.59
2018-09-24T15:15:42.723Z,10.64
2018-09-24T15:18:15.441Z,10.63
2018-09-24T15:20:48.550Z,10.69
2018-09-24T15:23:21.395Z,10.68
2018-09-24T15:25:54.600Z,10.55
2018-09-24T15:28:27.280Z,10.52
2018-09-24T15:30:59.959Z,10.53
2018-09-24T15:33:32.603Z,10.57
2018-09-24T15:36:05.487Z,10.46
2018-09-24T15:38:38.091Z,10.53
2018-09-24T15:41:10.816Z,10.36
2018-09-24T15:43:43.723Z,10.35
2018-09-24T15:46:17.162Z,10.29
2018-09-24T15:48:49.856Z,10.20
2018-09-24T15:51:22.627Z,10.19
2018-09-24T15:53:55.986Z,10.09
2018-09-24T15:56:28.962Z,10.10
2018-09-24T15:59:01.670Z,10.06
2018-09-24T16:01:34.741Z,10.03
2018-09-24T16:04:07.435Z,9.98
2018-09-24T16:06:40.855Z,9.91
2018-09-24T16:09:14.037Z,9.92
2018-09-24T16:11:47.111Z,9.79
2018-09-24T16:14:25.272Z,9.78
2018-09-24T16:16:58.511Z,9.89
2018-09-24T16:19:31.209Z,9.82
2018-09-24T16:22:04.063Z,9.72
2018-09-24T16:24:41.133Z,9.67
2018-09-24T16:27:19.816Z,9.72
2018-09-24T16:29:54.496Z,9.76
2018-09-24T16:32:29.973Z,9.83
2018-09-24T16:35:06.047Z,9.71
2018-09-24T16:37:39.344Z,9.73
2018-09-24T16:40:12.875Z,9.63
2018-09-24T16:42:47.918Z,9.51
2018-09-24T16:45:20.858Z,9.45
2018-09-24T16:47:53.731Z,9.42
2018-09-24T16:50:27.257Z,9.39
2018-09-24T16:53:00.385Z,9.38
2018-09-24T16:55:33.142Z,9.37
2018-09-24T16:58:06.069Z,9.32
2018-09-24T17:00:38.929Z,9.31
2018-09-24T17:03:11.832Z,9.29
2018-09-24T17:05:44.440Z,9.27
2018-09-24T17:08:17.588Z,9.25
2018-09-24T17:10:50.461Z,9.20
2018-09-24T17:13:23.634Z,9.26
2018-09-24T17:15:56.508Z,9.22
2018-09-24T17:18:29.397Z,9.21
2018-09-24T17:21:02.627Z,9.20
2018-09-24T17:23:35.575Z,9.18
2018-09-24T17:26:08.383Z,9.18
2018-09-24T17:28:41.340Z,9.15
2018-09-24T17:31:14.288Z,9.04
2018-09-24T17:33:46.996Z,9.08
2018-09-24T17:36:19.948Z,9.11
2018-09-24T17:38:52.873Z,8.98
2018-09-24T17:41:25.751Z,8.99
2018-09-24T17:43:59.278Z,8.95
2018-09-24T17:46:32.185Z,8.90
2018-09-24T17:49:05.124Z,8.88
2018-09-24T17:51:38.720Z,9.01
2018-09-24T17:54:13.378Z,9.19
2018-09-24T17:56:46.165Z,9.03
2018-09-24T17:59:19.255Z,8.87
2018-09-24T18:01:52.047Z,8.80
2018-09-24T18:04:25.032Z,8.76
2018-09-24T18:06:57.835Z,8.67
2018-09-24T18:09:31.005Z,8.79
2018-09-24T18:12:03.823Z,8.75
2018-09-24T18:14:36.503Z,8.70
2018-09-24T18:17:09.530Z,8.57
2018-09-24T18:19:42.374Z,8.48
2018-09-24T18:22:15.009Z,8.36
2018-09-24T18:24:47.901Z,8.31
2018-09-24T18:27:20.685Z,8.29
2018-09-24T18:29:53.517Z,8.28
2018-09-24T18:32:26.748Z,8.30
2018-09-24T18:34:59.429Z,8.24
2018-09-24T18:37:32.809Z,8.23
2018-09-24T18:40:05.535Z,8.21
2018-09-24T18:42:38.247Z,8.19
2018-09-24T18:45:11.131Z,8.24
2018-09-24T18:47:44.036Z,8.19
2018-09-24T18:50:16.825Z,8.14
2018-09-24T18:52:49.720Z,8.23
2018-09-24T18:55:22.432Z,8.10
2018-09-24T18:57:55.068Z,8.08
2018-09-24T19:00:27.769Z,7.92
2018-09-24T19:03:00.411Z,7.97
2018-09-24T19:05:33.024Z,7.91
2018-09-24T19:08:05.880Z,7.90
2018-09-24T19:10:38.579Z,7.92
2018-09-24T19:13:11.564Z,7.89
2018-09-24T19:15:44.270Z,7.80
2018-09-24T19:18:17.446Z,7.77
2018-09-24T19:20:50.225Z,7.67
2018-09-24T19:23:23.507Z,7.72
2018-09-24T19:25:56.279Z,7.70
2018-09-24T19:28:30.554Z,7.63
2018-09-24T19:31:03.239Z,7.60
2018-09-24T19:33:37.307Z,7.56
2018-09-24T19:36:10.063Z,7.50
2018-09-24T19:38:43.065Z,7.50
2018-09-24T19:41:15.748Z,7.51
2018-09-24T19:43:48.455Z,7.46
2018-09-24T19:46:21.113Z,7.50
2018-09-24T19:48:54.261Z,7.42
2018-09-24T19:51:27.695Z,7.39
2018-09-24T19:54:00.974Z,7.27
2018-09-24T19:56:34.694Z,7.26
2018-09-24T19:59:07.875Z,7.20
2018-09-24T20:01:41.086Z,7.11
2018-09-24T20:04:13.862Z,7.05
2018-09-24T20:06:47.137Z,7.01
2018-09-24T20:09:20.543Z,7.01
2018-09-24T20:11:54.033Z,7.03
2018-09-24T20:14:27.015Z,6.98
2018-09-24T20:17:00.194Z,6.94
2018-09-24T20:19:32.796Z,6.96
2018-09-24T20:22:06.382Z,6.96
2018-09-24T20:24:39.172Z,6.90
2018-09-24T20:27:11.960Z,6.90
2018-09-24T20:29:44.832Z,6.81
2018-09-24T20:32:17.687Z,6.73
2018-09-24T20:34:50.669Z,6.70
2018-09-24T20:37:24.189Z,7.47
2018-09-24T20:39:57.144Z,7.15
2018-09-24T20:42:29.817Z,7.08
2018-09-24T20:45:02.643Z,6.82
2018-09-24T20:47:35.597Z,6.75
2018-09-24T20:50:08.205Z,6.72
2018-09-24T20:52:41.183Z,6.57
2018-09-24T20:55:13.808Z,6.64
2018-09-24T20:57:46.812Z,6.57
2018-09-24T21:00:19.944Z,6.56
2018-09-24T21:02:52.644Z,6.54
2018-09-24T21:05:25.849Z,6.53
2018-09-24T21:07:58.719Z,6.43
2018-09-24T21:10:31.919Z,6.42
2018-09-24T21:13:05.203Z,6.38
2018-09-24T21:15:38.176Z,6.54
2018-09-24T21:18:10.887Z,6.39
2018-09-24T21:20:44.097Z,6.28
2018-09-24T21:23:17.105Z,6.33
2018-09-24T21:25:50.292Z,6.32
2018-09-24T21:28:23.195Z,6.29
2018-09-24T21:30:55.892Z,6.13
2018-09-24T21:33:28.583Z,6.09
2018-09-24T21:36:01.579Z,6.08
2018-09-24T21:38:34.678Z,6.08
2018-09-24T21:41:07.516Z,6.03
2018-09-24T21:43:40.712Z,6.05
2018-09-24T21:46:14.096Z,6.08
2018-09-24T21:48:46.907Z,6.04
2018-09-24T21:51:19.822Z,6.09
2018-09-24T21:53:52.653Z,6.13
2018-09-24T21:56:25.407Z,6.14
2018-09-24T21:58:58.176Z,6.16
2018-09-24T22:01:30.957Z,6.09
2018-09-24T22:04:03.787Z,6.05
2018-09-24T22:06:36.536Z,6.12
2018-09-24T22:09:12.253Z,6.01
2018-09-24T22:11:45.004Z,6.10
2018-09-24T22:14:18.007Z,6.10
2018-09-24T22:16:50.804Z,5.93
2018-09-24T22:19:23.396Z,5.94
2018-09-24T22:21:56.045Z,5.98
2018-09-24T22:24:28.755Z,6.02
2018-09-24T22:27:01.552Z,5.95
2018-09-24T22:29:34.296Z,5.93
2018-09-24T22:32:07.075Z,5.99
2018-09-24T22:34:39.745Z,5.96
2018-09-24T22:37:12.655Z,5.97
2018-09-24T22:39:45.696Z,6.10
2018-09-24T22:42:18.559Z,6.13
2018-09-24T22:44:51.569Z,6.15
2018-09-24T22:47:24.297Z,6.17
2018-09-24T22:49:57.445Z,6.19
2018-09-24T22:52:30.159Z,6.14
2018-09-24T22:55:03.203Z,6.16
2018-09-24T22:57:35.789Z,6.13
2018-09-24T23:00:08.875Z,6.14
2018-09-24T23:02:48.331Z,6.01
2018-09-24T23:05:21.071Z,5.96
2018-09-24T23:07:53.703Z,5.97
2018-09-24T23:10:26.916Z,6.00
2018-09-24T23:12:59.647Z,6.07
2018-09-24T23:15:32.591Z,6.04
2018-09-24T23:18:05.244Z,6.08
2018-09-24T23:20:38.184Z,6.04
2018-09-24T23:23:11.152Z,5.89
2018-09-24T23:25:44.027Z,5.89
2018-09-24T23:28:16.631Z,5.98
2018-09-24T23:30:49.326Z,5.97
2018-09-24T23:33:22.607Z,5.93
2018-09-24T23:35:55.353Z,6.05
2018-09-24T23:38:28.584Z,5.88
2018-09-24T23:41:01.390Z,5.71
2018-09-24T23:43:34.348Z,5.86
2018-09-24T23:46:07.116Z,5.87
2018-09-24T23:48:39.860Z,5.90
2018-09-24T23:51:12.602Z,5.92
2018-09-24T23:53:45.575Z,5.93
2018-09-24T23:56:18.433Z,5.91
2018-09-24T23:58:51.460Z,5.87
